Time;durP1;ratioP1;P1;durP2;ratioP2;P2;SDS_P1;SDS_P2;PMS_P1;PMS_P2;Temp;Humidity;BMP_temperature;BMP_pressure;BME280_temperature;BME280_humidity;BME280_pressure;Samples;Min_cycle;Max_cycle;Signal;HPM_P1;HPM_P2
2023/06/15 00:00:31;;;;;;;37.85;6.38;;;31.20;42.20;;;;;;5015235;28;20686;-64
2023/06/15 00:02:58;;;;;;;38.08;6.53;;;31.20;42.20;;;;;;5040798;28;20201;-64
2023/06/15 00:05:25;;;;;;;47.15;7.18;;;31.20;42.40;;;;;;5038794;28;20227;-63
2023/06/15 00:07:52;;;;;;;52.03;7.75;;;31.20;42.30;;;;;;5042407;28;20215;-63
2023/06/15 00:10:20;;;;;;;33.95;6.28;;;31.10;42.20;;;;;;5033267;28;20208;-63
2023/06/15 00:12:47;;;;;;;36.17;6.45;;;31.20;42.30;;;;;;5045795;28;20714;-64
2023/06/15 00:15:15;;;;;;;26.35;5.60;;;31.20;42.30;;;;;;5035897;28;20215;-64
2023/06/15 00:17:43;;;;;;;27.75;5.32;;;31.10;42.30;;;;;;5017740;28;20296;-66
2023/06/15 00:20:12;;;;;;;46.67;7.65;;;31.10;42.90;;;;;;5030645;28;21126;-64
2023/06/15 00:22:40;;;;;;;58.08;8.10;;;31.20;42.40;;;;;;5039675;28;20238;-68
2023/06/15 00:25:07;;;;;;;39.03;6.47;;;31.10;42.30;;;;;;5034458;28;20258;-64
2023/06/15 00:27:36;;;;;;;32.22;6.05;;;31.10;42.30;;;;;;5038227;28;20204;-64
2023/06/15 00:30:04;;;;;;;24.92;5.30;;;31.10;42.30;;;;;;5018435;28;20236;-65
2023/06/15 00:32:32;;;;;;;33.92;6.32;;;31.10;42.40;;;;;;5025076;28;20214;-63
2023/06/15 00:34:58;;;;;;;32.35;5.55;;;31.10;42.40;;;;;;5042303;28;20207;-65
2023/06/15 00:37:25;;;;;;;44.95;6.88;;;31.10;42.40;;;;;;5042943;28;20207;-66
2023/06/15 00:39:52;;;;;;;29.88;5.65;;;31.10;42.40;;;;;;5039241;28;20216;-64
2023/06/15 00:42:19;;;;;;;48.13;7.28;;;31.10;42.50;;;;;;5044216;28;20204;-64
2023/06/15 00:44:47;;;;;;;29.38;5.30;;;31.00;42.40;;;;;;5028093;28;20201;-65
2023/06/15 00:47:15;;;;;;;26.17;5.50;;;31.00;42.40;;;;;;5017549;28;20201;-64
2023/06/15 00:49:42;;;;;;;30.02;5.53;;;31.00;42.40;;;;;;5023156;28;20697;-63
2023/06/15 00:52:09;;;;;;;34.83;6.22;;;31.00;42.40;;;;;;5026180;28;20197;-63
2023/06/15 00:54:38;;;;;;;67.85;9.18;;;31.00;42.50;;;;;;5024615;28;20705;-63
2023/06/15 00:57:06;;;;;;;39.63;6.85;;;31.00;42.50;;;;;;5029289;28;20652;-63
2023/06/15 00:59:34;;;;;;;36.72;6.20;;;30.90;42.40;;;;;;5040707;28;20697;-63
2023/06/15 01:02:03;;;;;;;37.75;6.28;;;30.90;42.40;;;;;;5031704;28;20856;-63
2023/06/15 01:04:30;;;;;;;31.10;6.22;;;30.90;42.40;;;;;;5034218;28;20199;-64
2023/06/15 01:07:02;;;;;;;35.70;6.38;;;30.90;42.50;;;;;;5038540;28;20672;-65
2023/06/15 01:09:30;;;;;;;32.13;6.18;;;30.90;42.50;;;;;;5039603;28;20204;-64
2023/06/15 01:11:59;;;;;;;38.30;6.57;;;30.90;42.50;;;;;;5041701;28;20200;-65
2023/06/15 01:14:29;;;;;;;37.15;6.43;;;30.90;42.50;;;;;;5046539;28;20216;-64
2023/06/15 01:16:59;;;;;;;31.70;6.03;;;30.90;42.60;;;;;;5044171;28;20207;-63
2023/06/15 01:19:40;;;;;;;29.75;5.78;;;30.90;42.60;;;;;;5034066;28;20909;-65
2023/06/15 01:22:16;;;;;;;24.05;5.18;;;30.80;42.60;;;;;;5043947;28;20199;-65
2023/06/15 01:24:51;;;;;;;20.75;5.22;;;30.90;42.70;;;;;;5042308;28;20562;-65
2023/06/15 01:27:21;;;;;;;24.52;5.25;;;30.90;42.60;;;;;;5047357;28;20207;-64
2023/06/15 01:29:52;;;;;;;23.55;5.25;;;30.80;42.60;;;;;;5046011;28;20196;-68
2023/06/15 01:32:20;;;;;;;43.78;7.07;;;30.80;42.60;;;;;;5027051;28;20205;-64
2023/06/15 01:34:47;;;;;;;23.05;5.30;;;30.80;42.60;;;;;;5023962;28;20233;-64
2023/06/15 01:37:13;;;;;;;27.77;5.90;;;30.80;42.60;;;;;;5038401;28;20197;-64
2023/06/15 01:39:42;;;;;;;24.27;5.53;;;30.80;42.60;;;;;;5046106;28;20665;-63
2023/06/15 01:42:10;;;;;;;25.92;5.53;;;30.80;42.60;;;;;;5021930;28;20672;-65
2023/06/15 01:44:39;;;;;;;21.48;5.03;;;30.80;42.60;;;;;;5036864;28;20196;-66
2023/06/15 01:47:07;;;;;;;26.88;5.28;;;30.80;42.60;;;;;;5035230;28;20201;-63
2023/06/15 01:49:35;;;;;;;25.85;5.43;;;30.80;42.60;;;;;;5026645;28;20205;-66
2023/06/15 01:52:02;;;;;;;34.20;6.57;;;30.70;42.60;;;;;;5041390;28;20208;-65
2023/06/15 01:54:29;;;;;;;33.67;6.25;;;30.80;42.60;;;;;;5031437;28;20217;-66
2023/06/15 01:56:55;;;;;;;24.83;5.30;;;30.70;42.60;;;;;;5035370;28;20613;-64
2023/06/15 01:59:22;;;;;;;28.73;5.73;;;30.70;42.60;;;;;;5031100;28;20197;-64
2023/06/15 02:01:51;;;;;;;38.45;6.45;;;30.70;42.60;;;;;;5031336;28;20204;-64
2023/06/15 02:04:17;;;;;;;38.15;6.97;;;30.70;42.60;;;;;;5024688;28;20675;-64
2023/06/15 02:06:44;;;;;;;21.90;5.05;;;30.70;42.70;;;;;;5033723;28;20193;-63
2023/06/15 02:09:11;;;;;;;19.08;4.82;;;30.70;42.70;;;;;;5036239;28;20200;-63
2023/06/15 02:11:38;;;;;;;22.48;5.20;;;30.70;42.60;;;;;;5037692;28;20200;-65
2023/06/15 02:14:05;;;;;;;23.67;5.15;;;30.70;42.70;;;;;;5048672;28;20222;-63
2023/06/15 02:16:33;;;;;;;23.95;5.25;;;30.60;42.60;;;;;;5018895;28;20669;-64
2023/06/15 02:19:03;;;;;;;66.90;8.97;;;30.60;42.60;;;;;;5024773;28;20574;-63
2023/06/15 02:21:29;;;;;;;32.60;6.32;;;30.60;42.60;;;;;;5022792;28;20200;-63
2023/06/15 02:23:56;;;;;;;38.67;6.43;;;30.60;42.60;;;;;;5030724;28;20201;-64
2023/06/15 02:26:23;;;;;;;50.42;8.50;;;30.60;42.70;;;;;;5027854;28;20205;-64
2023/06/15 02:28:50;;;;;;;31.13;5.75;;;30.60;42.70;;;;;;5026917;28;20197;-63
2023/06/15 02:31:17;;;;;;;44.00;7.05;;;30.60;42.70;;;;;;5027375;28;20200;-64
2023/06/15 02:33:44;;;;;;;37.70;6.45;;;30.60;42.80;;;;;;5029715;28;20651;-63
2023/06/15 02:36:19;;;;;;;27.30;5.78;;;30.60;42.80;;;;;;5029228;28;20296;-64
2023/06/15 02:38:46;;;;;;;33.55;6.13;;;30.60;42.80;;;;;;5030884;28;20193;-63
2023/06/15 02:41:13;;;;;;;28.13;5.75;;;30.50;42.70;;;;;;5036008;28;20210;-63
2023/06/15 02:43:40;;;;;;;47.60;7.20;;;30.50;42.70;;;;;;5022513;28;20213;-63
2023/06/15 02:46:07;;;;;;;28.48;5.88;;;30.50;42.70;;;;;;5032339;28;20207;-66
2023/06/15 02:48:34;;;;;;;27.10;5.67;;;30.50;42.70;;;;;;5021000;28;20629;-64
2023/06/15 02:51:01;;;;;;;26.23;5.65;;;30.60;42.80;;;;;;5024575;28;20212;-65
2023/06/15 02:53:29;;;;;;;19.20;4.93;;;30.50;42.80;;;;;;5030383;28;20221;-63
2023/06/15 02:55:57;;;;;;;28.10;5.57;;;30.50;42.80;;;;;;5035626;28;20699;-63
2023/06/15 02:58:25;;;;;;;28.85;5.65;;;30.50;42.80;;;;;;5038504;28;20224;-67
2023/06/15 03:00:53;;;;;;;23.33;5.22;;;30.50;42.80;;;;;;5037620;28;20204;-63
2023/06/15 03:03:27;;;;;;;24.45;5.68;;;30.40;42.70;;;;;;5028693;28;20204;-64
2023/06/15 03:05:54;;;;;;;37.80;6.50;;;30.40;42.80;;;;;;5046228;28;21083;-64
2023/06/15 03:08:23;;;;;;;22.77;5.32;;;30.50;42.80;;;;;;5029383;28;20493;-63
2023/06/15 03:10:52;;;;;;;38.17;6.57;;;30.40;42.80;;;;;;5031943;28;20197;-64
2023/06/15 03:13:20;;;;;;;29.00;5.77;;;30.40;42.80;;;;;;5046315;28;20204;-65
2023/06/15 03:15:48;;;;;;;33.07;6.17;;;30.40;42.80;;;;;;5038429;28;20205;-64
2023/06/15 03:18:15;;;;;;;25.43;5.20;;;30.40;42.80;;;;;;5024909;28;20300;-64
2023/06/15 03:20:43;;;;;;;26.65;5.88;;;30.40;42.80;;;;;;5036412;28;20211;-66
2023/06/15 03:23:12;;;;;;;31.17;5.77;;;30.40;42.80;;;;;;5023882;28;20203;-66
2023/06/15 03:25:38;;;;;;;25.52;5.38;;;30.40;42.90;;;;;;5030400;28;20201;-64
2023/06/15 03:28:07;;;;;;;21.17;5.20;;;30.40;42.90;;;;;;5027941;28;20208;-67
2023/06/15 03:30:35;;;;;;;36.77;6.47;;;30.40;42.90;;;;;;5021482;28;20201;-63
2023/06/15 03:33:02;;;;;;;46.15;7.38;;;30.30;42.80;;;;;;5008586;28;20607;-64
2023/06/15 03:35:29;;;;;;;49.73;7.70;;;30.30;42.80;;;;;;5033047;28;20312;-63
2023/06/15 03:37:56;;;;;;;32.03;5.88;;;30.30;42.80;;;;;;5047644;28;20651;-63
2023/06/15 03:40:23;;;;;;;26.98;5.53;;;30.30;42.90;;;;;;5021857;28;20198;-64
2023/06/15 03:42:50;;;;;;;25.48;5.63;;;30.30;42.80;;;;;;5014136;28;20220;-64
2023/06/15 03:45:18;;;;;;;41.45;6.93;;;30.30;42.90;;;;;;5022674;28;20197;-68
2023/06/15 03:47:47;;;;;;;32.93;6.33;;;30.30;42.90;;;;;;5026540;28;20201;-67
2023/06/15 03:50:14;;;;;;;32.97;6.20;;;30.30;43.00;;;;;;5032206;28;20215;-64
2023/06/15 03:52:41;;;;;;;25.48;5.72;;;30.30;43.00;;;;;;5028855;28;20247;-63
2023/06/15 03:55:08;;;;;;;26.10;5.57;;;30.30;43.00;;;;;;5020517;28;20228;-63
2023/06/15 03:57:35;;;;;;;22.00;5.45;;;30.20;43.00;;;;;;5039209;28;20242;-64
2023/06/15 04:00:04;;;;;;;40.47;6.85;;;30.20;43.00;;;;;;5026280;28;20751;-65
2023/06/15 04:02:33;;;;;;;25.60;5.50;;;30.20;43.00;;;;;;5025073;28;20226;-63
2023/06/15 04:05:00;;;;;;;25.50;5.40;;;30.20;43.60;;;;;;5030365;28;21165;-64
2023/06/15 04:07:28;;;;;;;23.95;5.68;;;30.20;43.10;;;;;;5015387;28;20197;-63
2023/06/15 04:09:54;;;;;;;24.23;5.72;;;30.20;43.00;;;;;;5020548;28;20303;-65
2023/06/15 04:12:21;;;;;;;28.45;6.22;;;30.20;43.00;;;;;;5026409;28;20204;-67
2023/06/15 04:14:48;;;;;;;30.20;6.43;;;30.20;42.90;;;;;;5020904;28;20216;-62
2023/06/15 04:17:16;;;;;;;31.65;6.03;;;30.20;42.80;;;;;;5020245;28;20193;-63
2023/06/15 04:19:44;;;;;;;47.47;8.23;;;30.20;42.80;;;;;;5024737;28;20201;-63
2023/06/15 04:22:11;;;;;;;30.30;6.73;;;30.10;42.70;;;;;;5024573;28;20196;-65
2023/06/15 04:24:38;;;;;;;34.40;7.10;;;30.10;42.60;;;;;;5026244;28;20211;-65
2023/06/15 04:27:06;;;;;;;34.67;7.15;;;30.10;42.60;;;;;;5021197;28;20967;-66
2023/06/15 04:29:34;;;;;;;24.33;6.10;;;30.10;42.60;;;;;;5011230;28;20206;-64
2023/06/15 04:32:03;;;;;;;34.55;7.40;;;30.10;42.60;;;;;;5025241;28;20200;-63
2023/06/15 04:34:30;;;;;;;48.83;8.43;;;30.10;42.60;;;;;;5020445;28;20235;-63
2023/06/15 04:36:58;;;;;;;42.47;7.93;;;30.10;42.60;;;;;;5025177;28;20217;-63
2023/06/15 04:39:27;;;;;;;26.37;6.07;;;30.00;42.50;;;;;;5022476;28;20684;-63
2023/06/15 04:41:57;;;;;;;42.87;7.50;;;30.00;42.50;;;;;;5025995;28;20205;-66
2023/06/15 04:44:24;;;;;;;31.10;6.50;;;30.00;42.50;;;;;;5024368;28;20224;-63
2023/06/15 04:46:51;;;;;;;26.25;6.35;;;30.00;42.50;;;;;;5011416;28;20486;-62
2023/06/15 04:49:18;;;;;;;33.30;7.23;;;29.90;42.70;;;;;;5011525;28;20197;-61
2023/06/15 04:51:44;;;;;;;20.93;5.30;;;29.90;42.70;;;;;;5023535;28;20202;-62
2023/06/15 04:54:13;;;;;;;26.73;6.40;;;29.90;42.70;;;;;;5025565;28;20727;-62
2023/06/15 04:56:39;;;;;;;36.07;7.10;;;29.90;42.60;;;;;;5018161;28;20320;-62
2023/06/15 04:59:07;;;;;;;35.70;7.18;;;29.90;42.60;;;;;;5024311;28;20208;-64
2023/06/15 05:01:33;;;;;;;27.27;6.67;;;29.90;42.60;;;;;;5021333;28;20571;-62
2023/06/15 05:04:00;;;;;;;38.25;7.18;;;29.90;42.60;;;;;;5019043;28;20197;-62
2023/06/15 05:06:27;;;;;;;29.73;6.93;;;29.90;42.60;;;;;;5016724;28;20290;-62
2023/06/15 05:08:54;;;;;;;23.70;6.32;;;29.80;42.60;;;;;;5026867;28;20200;-64
2023/06/15 05:11:22;;;;;;;28.80;6.23;;;29.80;42.50;;;;;;5020717;28;20197;-62
2023/06/15 05:13:49;;;;;;;24.13;6.32;;;29.80;42.60;;;;;;5037103;28;20204;-62
2023/06/15 05:16:16;;;;;;;32.50;6.97;;;29.80;42.60;;;;;;5008597;28;20209;-62
2023/06/15 05:18:45;;;;;;;27.83;6.77;;;29.70;42.60;;;;;;5018270;28;20216;-61
2023/06/15 05:21:12;;;;;;;26.90;6.90;;;29.70;42.60;;;;;;5020034;28;20213;-61
2023/06/15 05:23:39;;;;;;;22.93;5.93;;;29.70;42.60;;;;;;5014091;28;20665;-62
2023/06/15 05:26:06;;;;;;;25.33;6.60;;;29.70;42.70;;;;;;5043023;28;20200;-62
2023/06/15 05:28:34;;;;;;;37.70;7.53;;;29.70;42.70;;;;;;5043837;28;20208;-62
2023/06/15 05:31:02;;;;;;;43.23;8.23;;;29.70;42.70;;;;;;5043910;28;20857;-66
2023/06/15 05:33:29;;;;;;;29.87;6.67;;;29.60;42.70;;;;;;5046785;28;20196;-66
2023/06/15 05:35:56;;;;;;;34.90;7.23;;;29.60;42.60;;;;;;5036724;28;20231;-61
2023/06/15 05:38:23;;;;;;;31.13;6.67;;;29.60;42.70;;;;;;5028532;28;20201;-62
2023/06/15 05:40:50;;;;;;;26.87;6.03;;;29.60;42.70;;;;;;5026814;28;20218;-64
2023/06/15 05:43:17;;;;;;;28.03;6.53;;;29.60;42.80;;;;;;5036830;28;20203;-65
2023/06/15 05:45:45;;;;;;;24.57;6.83;;;29.60;42.80;;;;;;5050065;28;20203;-62
2023/06/15 05:48:12;;;;;;;29.83;7.03;;;29.60;42.80;;;;;;5046335;28;20227;-62
2023/06/15 05:50:39;;;;;;;29.00;6.90;;;29.50;42.80;;;;;;5034555;28;20662;-62
2023/06/15 05:53:06;;;;;;;40.93;8.03;;;29.50;42.80;;;;;;5016918;28;20202;-63
2023/06/15 05:55:33;;;;;;;40.17;8.35;;;29.50;42.80;;;;;;5014403;28;20277;-63
2023/06/15 05:58:00;;;;;;;39.73;7.60;;;29.50;42.90;;;;;;5038742;28;20532;-62
2023/06/15 06:00:30;;;;;;;40.70;7.90;;;29.50;42.90;;;;;;5027618;28;20209;-62
2023/06/15 06:02:58;;;;;;;31.77;7.43;;;29.50;43.00;;;;;;5027009;28;20285;-65
2023/06/15 06:05:25;;;;;;;45.23;8.23;;;29.50;43.00;;;;;;5026912;28;20205;-62
2023/06/15 06:07:52;;;;;;;24.27;6.53;;;29.50;43.00;;;;;;5022929;28;20209;-63
2023/06/15 06:10:19;;;;;;;29.60;6.67;;;29.50;43.10;;;;;;5024773;28;20199;-62
2023/06/15 06:12:46;;;;;;;21.50;5.90;;;29.50;43.10;;;;;;5016417;28;20255;-63
2023/06/15 06:15:14;;;;;;;28.27;7.10;;;29.40;43.10;;;;;;5029415;28;20220;-64
2023/06/15 06:17:42;;;;;;;22.87;6.23;;;29.40;43.20;;;;;;5025760;28;20201;-62
2023/06/15 06:20:11;;;;;;;25.30;6.60;;;29.40;43.20;;;;;;5024568;28;20205;-62
2023/06/15 06:22:38;;;;;;;22.83;6.13;;;29.40;43.30;;;;;;5016380;28;20204;-63
2023/06/15 06:25:06;;;;;;;27.40;6.97;;;29.40;43.30;;;;;;5029129;28;20205;-61
2023/06/15 06:27:33;;;;;;;34.80;7.40;;;29.40;43.30;;;;;;5025453;28;20313;-61
2023/06/15 06:30:00;;;;;;;23.30;6.23;;;29.40;43.30;;;;;;5027369;28;20200;-62
2023/06/15 06:32:28;;;;;;;33.50;7.40;;;29.40;43.40;;;;;;5028027;28;20205;-62
2023/06/15 06:34:55;;;;;;;27.80;6.73;;;29.40;43.40;;;;;;5026748;28;20310;-62
2023/06/15 06:37:24;;;;;;;31.47;7.20;;;29.50;43.50;;;;;;5032970;28;20203;-62
2023/06/15 06:39:51;;;;;;;30.40;6.90;;;29.40;43.50;;;;;;5026201;28;20196;-65
2023/06/15 06:42:18;;;;;;;31.43;6.80;;;29.50;43.60;;;;;;5021586;28;20200;-59
2023/06/15 06:44:45;;;;;;;37.90;7.63;;;29.50;43.60;;;;;;5031374;28;20205;-60
2023/06/15 06:47:12;;;;;;;30.73;6.87;;;29.50;43.60;;;;;;5015791;28;20204;-59
2023/06/15 06:49:39;;;;;;;38.77;7.93;;;29.50;43.60;;;;;;5019047;28;20205;-58
2023/06/15 06:52:06;;;;;;;30.10;6.73;;;29.50;43.60;;;;;;5025136;28;20203;-59
2023/06/15 06:54:35;;;;;;;31.30;6.93;;;29.50;43.60;;;;;;5017757;28;20194;-59
2023/06/15 06:57:03;;;;;;;28.30;6.40;;;29.50;43.70;;;;;;5018655;28;21019;-59
2023/06/15 06:59:30;;;;;;;56.13;9.40;;;29.50;43.70;;;;;;5010080;28;20194;-64
2023/06/15 07:01:57;;;;;;;45.33;8.17;;;29.60;43.80;;;;;;5038471;28;20204;-59
2023/06/15 07:04:23;;;;;;;30.80;7.10;;;29.60;43.90;;;;;;5049677;28;20200;-60
2023/06/15 07:06:50;;;;;;;28.57;6.60;;;29.60;43.90;;;;;;5034179;28;20584;-60
2023/06/15 07:09:17;;;;;;;32.90;7.07;;;29.60;43.90;;;;;;5033818;28;20205;-59
2023/06/15 07:11:45;;;;;;;27.10;7.23;;;29.60;43.90;;;;;;5048878;28;20204;-58
2023/06/15 07:14:12;;;;;;;26.00;6.77;;;29.60;43.90;;;;;;5028739;28;20662;-58
2023/06/15 07:16:39;;;;;;;30.27;7.90;;;29.60;43.80;;;;;;5032939;28;20724;-59
2023/06/15 07:19:06;;;;;;;22.17;6.27;;;29.60;43.90;;;;;;5045995;28;20200;-59
2023/06/15 07:21:33;;;;;;;25.93;6.53;;;29.70;44.00;;;;;;5045187;28;20192;-58
2023/06/15 07:23:59;;;;;;;30.17;6.73;;;29.70;43.80;;;;;;5049637;28;20200;-59
2023/06/15 07:26:26;;;;;;;30.27;7.00;;;29.70;43.40;;;;;;5049832;28;20204;-58
2023/06/15 07:28:55;;;;;;;27.30;7.30;;;29.70;43.10;;;;;;5049337;28;20204;-58
2023/06/15 07:31:21;;;;;;;46.43;9.80;;;29.70;42.70;;;;;;5042328;28;20205;-59
2023/06/15 07:33:48;;;;;;;28.07;7.37;;;29.70;42.70;;;;;;5033832;28;20196;-59
2023/06/15 07:36:15;;;;;;;47.13;9.53;;;29.70;43.00;;;;;;5039942;28;20858;-60
2023/06/15 07:38:42;;;;;;;28.70;7.28;;;29.70;42.80;;;;;;5039952;28;20208;-59
2023/06/15 07:41:09;;;;;;;25.37;7.33;;;29.70;43.30;;;;;;5049017;28;20196;-59
2023/06/15 07:43:36;;;;;;;24.80;6.93;;;29.70;42.60;;;;;;5049189;28;20196;-59
2023/06/15 07:46:04;;;;;;;27.00;7.97;;;29.60;42.50;;;;;;5047673;28;20212;-58
2023/06/15 07:48:31;;;;;;;21.73;7.10;;;29.60;42.40;;;;;;5046531;28;20200;-58
2023/06/15 07:50:58;;;;;;;34.17;8.03;;;29.60;42.50;;;;;;5020704;28;20275;-61
2023/06/15 07:53:25;;;;;;;29.80;7.17;;;29.60;42.60;;;;;;5020551;28;20201;-61
2023/06/15 07:55:52;;;;;;;29.47;7.33;;;29.50;43.40;;;;;;5027546;28;20700;-62
2023/06/15 07:58:19;;;;;;;36.50;8.03;;;29.50;42.90;;;;;;5028218;28;20197;-60
2023/06/15 08:00:46;;;;;;;56.80;9.87;;;29.50;43.20;;;;;;5025667;28;20689;-65
2023/06/15 08:03:14;;;;;;;40.60;7.93;;;29.50;43.30;;;;;;5033572;28;20209;-66
2023/06/15 08:05:41;;;;;;;39.00;8.77;;;29.50;43.40;;;;;;5027283;28;20220;-63
2023/06/15 08:08:08;;;;;;;37.20;7.87;;;29.50;43.10;;;;;;5028614;28;20196;-64
2023/06/15 08:10:35;;;;;;;39.03;7.77;;;29.50;43.30;;;;;;5022723;28;20201;-68
2023/06/15 08:13:02;;;;;;;38.70;8.50;;;29.50;43.30;;;;;;5039309;28;20200;-65
2023/06/15 08:15:28;;;;;;;43.20;8.20;;;29.50;43.40;;;;;;5044544;28;20550;-65
2023/06/15 08:17:55;;;;;;;34.93;7.50;;;29.50;43.40;;;;;;5041062;28;20201;-67
2023/06/15 08:20:23;;;;;;;30.37;7.37;;;29.50;43.50;;;;;;5038942;28;20197;-67
2023/06/15 08:22:50;;;;;;;44.03;8.53;;;29.50;43.50;;;;;;5022292;28;20205;-65
2023/06/15 08:25:17;;;;;;;72.50;10.23;;;29.60;43.30;;;;;;5039461;28;20209;-65
2023/06/15 08:27:44;;;;;;;27.37;6.73;;;29.60;44.00;;;;;;5040928;28;20210;-65
2023/06/15 08:30:12;;;;;;;24.53;6.33;;;29.60;43.50;;;;;;5048304;28;20215;-65
2023/06/15 08:32:39;;;;;;;38.00;7.47;;;29.60;43.40;;;;;;5043422;28;20208;-66
2023/06/15 08:35:07;;;;;;;32.27;6.97;;;29.70;43.30;;;;;;5047805;28;20222;-65
2023/06/15 08:37:36;;;;;;;26.57;6.53;;;29.70;43.20;;;;;;5041127;28;20230;-67
2023/06/15 08:40:06;;;;;;;47.25;8.77;;;29.70;43.00;;;;;;5043773;28;20893;-66
2023/06/15 08:42:34;;;;;;;31.70;7.00;;;29.70;43.10;;;;;;5015328;28;20565;-65
2023/06/15 08:45:05;;;;;;;28.07;6.70;;;29.70;43.40;;;;;;5019629;28;20718;-69
2023/06/15 08:47:34;;;;;;;27.90;6.75;;;29.70;43.10;;;;;;5039417;28;20199;-64
2023/06/15 08:50:01;;;;;;;37.80;7.70;;;29.80;43.30;;;;;;5045881;28;20200;-65
2023/06/15 08:52:31;;;;;;;64.03;10.03;;;29.80;43.50;;;;;;5029428;28;20291;-65
2023/06/15 08:55:02;;;;;;;24.27;6.13;;;29.80;43.20;;;;;;5013881;28;20570;-65
2023/06/15 08:57:29;;;;;;;24.07;6.40;;;29.90;43.30;;;;;;5020251;28;20224;-68
2023/06/15 08:59:56;;;;;;;26.73;6.37;;;29.90;43.40;;;;;;5039650;28;20637;-66
2023/06/15 09:02:25;;;;;;;39.80;7.77;;;29.90;43.40;;;;;;5037591;28;20200;-65
2023/06/15 09:04:52;;;;;;;22.42;6.00;;;29.90;43.30;;;;;;5041532;28;20211;-64
2023/06/15 09:07:20;;;;;;;28.73;6.50;;;30.00;43.50;;;;;;5048087;28;20207;-66
2023/06/15 09:10:13;;;;;;;20.20;5.83;;;30.00;43.60;;;;;;5034677;28;20197;-65
2023/06/15 09:12:43;;;;;;;30.30;6.47;;;30.00;43.90;;;;;;5022120;28;20212;-66
2023/06/15 09:15:12;;;;;;;34.25;7.13;;;30.10;43.90;;;;;;5026967;28;20200;-66
2023/06/15 09:17:39;;;;;;;30.48;6.53;;;30.10;43.80;;;;;;5027215;28;20319;-67
2023/06/15 09:20:08;;;;;;;35.97;7.00;;;30.10;43.90;;;;;;5028114;28;20200;-65
2023/06/15 09:22:42;;;;;;;29.73;6.63;;;30.20;44.00;;;;;;5007814;28;20204;-66
2023/06/15 09:25:16;;;;;;;23.52;5.88;;;30.20;44.00;;;;;;5007432;28;20550;-65
2023/06/15 09:27:53;;;;;;;21.05;5.88;;;30.30;44.10;;;;;;5008190;28;20204;-65
2023/06/15 09:30:20;;;;;;;31.47;6.67;;;30.30;44.00;;;;;;5008131;28;20733;-65
2023/06/15 09:32:47;;;;;;;21.50;5.40;;;30.30;44.00;;;;;;5022430;28;20668;-65
2023/06/15 09:35:13;;;;;;;26.95;6.15;;;30.30;44.00;;;;;;5047215;28;20203;-65
2023/06/15 09:37:40;;;;;;;23.35;5.82;;;30.30;44.00;;;;;;5030084;28;20209;-65
2023/06/15 09:40:10;;;;;;;29.33;6.40;;;30.40;44.10;;;;;;5007247;28;20201;-65
2023/06/15 09:42:40;;;;;;;20.43;5.47;;;30.40;44.80;;;;;;5017432;28;20300;-64
2023/06/15 09:45:09;;;;;;;28.03;5.90;;;30.50;44.20;;;;;;5014410;28;20209;-65
2023/06/15 09:47:37;;;;;;;28.33;5.65;;;30.50;44.20;;;;;;5020260;28;20210;-64
2023/06/15 09:50:09;;;;;;;16.25;5.00;;;30.60;44.30;;;;;;5045736;28;20210;-67
2023/06/15 09:52:42;;;;;;;25.58;5.93;;;30.60;44.40;;;;;;5047676;28;20192;-65
2023/06/15 09:55:10;;;;;;;24.63;6.20;;;30.60;44.20;;;;;;5047148;28;20234;-65
2023/06/15 09:57:41;;;;;;;27.40;6.15;;;30.70;44.20;;;;;;5047028;28;20755;-64
2023/06/15 10:00:09;;;;;;;21.70;5.63;;;30.70;44.20;;;;;;5047766;28;20232;-64
2023/06/15 10:02:39;;;;;;;28.92;6.40;;;30.80;44.30;;;;;;5038331;28;20205;-65
2023/06/15 10:05:13;;;;;;;22.38;5.47;;;30.80;44.30;;;;;;5045807;28;20204;-64
2023/06/15 10:07:44;;;;;;;25.45;5.95;;;30.80;44.30;;;;;;5030387;28;20216;-65
2023/06/15 10:10:12;;;;;;;19.13;5.38;;;30.90;44.30;;;;;;5027732;28;20209;-65
2023/06/15 10:12:43;;;;;;;24.95;5.70;;;30.90;44.20;;;;;;5027854;28;20209;-65
2023/06/15 10:15:12;;;;;;;20.25;5.18;;;31.00;44.30;;;;;;5031355;28;20200;-66
2023/06/15 10:17:41;;;;;;;26.90;6.00;;;31.00;44.20;;;;;;5030494;28;20236;-65
2023/06/15 10:20:12;;;;;;;24.10;5.70;;;31.10;44.20;;;;;;5030673;28;20209;-64
2023/06/15 10:22:45;;;;;;;23.17;5.88;;;31.10;44.20;;;;;;5030682;28;20209;-65
2023/06/15 10:25:13;;;;;;;27.40;5.97;;;31.10;44.20;;;;;;5022712;28;20284;-65
2023/06/15 10:27:42;;;;;;;24.38;5.28;;;31.10;44.10;;;;;;5030533;28;20215;-68
2023/06/15 10:30:16;;;;;;;26.85;6.13;;;31.20;44.30;;;;;;5030742;28;20575;-65
2023/06/15 10:32:49;;;;;;;20.35;5.30;;;31.30;44.40;;;;;;5030319;28;20204;-65
2023/06/15 10:35:24;;;;;;;24.55;5.90;;;31.30;44.40;;;;;;5030589;28;20219;-65
2023/06/15 10:37:57;;;;;;;19.77;5.50;;;31.30;44.40;;;;;;5030256;28;20255;-67
2023/06/15 10:40:29;;;;;;;24.80;5.78;;;31.40;44.40;;;;;;5031175;28;20204;-65
2023/06/15 10:43:01;;;;;;;42.85;7.38;;;31.50;44.40;;;;;;5050334;28;20567;-65
2023/06/15 10:45:29;;;;;;;27.60;6.15;;;31.50;44.30;;;;;;5050400;28;20212;-67
2023/06/15 10:47:58;;;;;;;24.25;5.32;;;31.60;44.20;;;;;;5050285;28;20218;-64
2023/06/15 10:50:26;;;;;;;25.63;5.65;;;31.70;44.40;;;;;;5050149;28;20770;-65
2023/06/15 10:52:53;;;;;;;22.92;5.57;;;31.70;44.20;;;;;;5050124;28;20208;-65
2023/06/15 10:55:23;;;;;;;45.15;7.50;;;31.80;44.30;;;;;;5049383;28;20230;-68
2023/06/15 10:58:16;;;;;;;24.55;5.82;;;31.90;44.40;;;;;;5035487;28;20269;-65
2023/06/15 11:00:43;;;;;;;30.08;6.28;;;32.00;44.00;;;;;;5018152;28;20204;-67
2023/06/15 11:03:24;;;;;;;33.50;6.78;;;32.20;44.00;;;;;;5026610;28;20557;-70
2023/06/15 11:06:02;;;;;;;41.95;6.95;;;32.30;44.00;;;;;;5023662;28;20288;-65
2023/06/15 11:08:32;;;;;;;26.38;5.85;;;32.40;43.80;;;;;;5029830;28;20208;-67
2023/06/15 11:10:59;;;;;;;23.95;5.88;;;32.60;44.00;;;;;;5026826;28;21093;-65
2023/06/15 11:13:27;;;;;;;24.48;6.15;;;32.70;43.90;;;;;;5020163;28;20288;-66
2023/06/15 11:16:08;;;;;;;21.40;5.45;;;33.00;43.90;;;;;;5023503;28;20204;-69
2023/06/15 11:18:36;;;;;;;22.65;5.65;;;33.10;43.50;;;;;;5029551;28;20204;-66
2023/06/15 11:21:04;;;;;;;22.42;5.82;;;33.30;43.70;;;;;;5025779;28;20211;-64
2023/06/15 11:23:33;;;;;;;72.18;10.43;;;33.50;43.90;;;;;;5032737;28;20213;-65
2023/06/15 11:26:02;;;;;;;27.02;6.10;;;33.60;43.80;;;;;;5029583;28;20200;-67
2023/06/15 11:28:34;;;;;;;24.00;5.97;;;33.80;43.50;;;;;;5038900;28;20209;-66
2023/06/15 11:31:02;;;;;;;28.17;5.55;;;34.10;43.80;;;;;;5029220;28;20664;-65
2023/06/15 11:33:30;;;;;;;24.15;5.90;;;34.30;43.40;;;;;;5042929;28;20200;-68
2023/06/15 11:36:03;;;;;;;27.35;6.00;;;34.50;43.20;;;;;;5023530;28;20232;-72
2023/06/15 11:38:30;;;;;;;23.02;5.82;;;34.60;43.10;;;;;;5029293;28;20205;-64
2023/06/15 11:41:01;;;;;;;19.95;5.35;;;34.80;42.70;;;;;;5029184;28;20684;-66
2023/06/15 11:43:36;;;;;;;31.17;6.47;;;35.00;42.70;;;;;;5042045;28;20208;-73
2023/06/15 11:46:03;;;;;;;22.52;5.60;;;35.10;42.40;;;;;;5021047;28;20208;-73
2023/06/15 11:48:30;;;;;;;30.60;5.95;;;35.30;42.70;;;;;;5028857;28;20250;-73
2023/06/15 11:50:58;;;;;;;27.80;6.00;;;35.50;42.80;;;;;;5031014;28;20206;-72
2023/06/15 11:53:25;;;;;;;29.98;6.63;;;35.60;42.30;;;;;;5016566;28;20335;-68
2023/06/15 11:55:51;;;;;;;34.58;7.00;;;35.70;42.30;;;;;;5022679;28;20236;-72
2023/06/15 11:58:20;;;;;;;32.58;7.05;;;35.80;42.20;;;;;;5012118;28;20250;-65
2023/06/15 12:00:48;;;;;;;29.02;6.38;;;36.00;42.20;;;;;;5046143;28;20369;-67
2023/06/15 12:03:16;;;;;;;34.78;6.35;;;36.10;42.30;;;;;;5020336;28;20215;-65
2023/06/15 12:05:43;;;;;;;34.00;6.78;;;36.30;42.50;;;;;;5032609;28;20220;-68
2023/06/15 12:08:11;;;;;;;32.35;6.78;;;36.40;42.30;;;;;;5042211;28;20220;-65
2023/06/15 12:10:38;;;;;;;28.50;5.97;;;36.50;42.10;;;;;;5030384;28;20214;-64
2023/06/15 12:13:11;;;;;;;28.15;6.75;;;36.60;41.60;;;;;;5044705;28;20203;-66
2023/06/15 12:15:39;;;;;;;31.27;6.78;;;36.70;40.90;;;;;;5029486;28;20206;-63
2023/06/15 12:18:09;;;;;;;24.83;5.65;;;36.80;40.90;;;;;;5040707;28;20239;-63
2023/06/15 12:20:37;;;;;;;27.58;5.95;;;36.80;40.90;;;;;;5046080;28;20211;-63
2023/06/15 12:23:05;;;;;;;26.90;6.15;;;36.90;40.50;;;;;;5036572;28;20594;-64
2023/06/15 12:25:46;;;;;;;27.48;6.20;;;37.00;40.40;;;;;;5040577;28;20201;-63
2023/06/15 12:28:18;;;;;;;33.25;6.65;;;37.00;40.10;;;;;;5025390;28;20894;-63
2023/06/15 12:30:47;;;;;;;25.88;6.35;;;37.10;40.60;;;;;;5041900;28;20205;-64
2023/06/15 12:33:30;;;;;;;21.33;5.75;;;37.10;40.40;;;;;;5047602;28;20212;-64
2023/06/15 12:35:58;;;;;;;26.48;5.70;;;37.10;39.90;;;;;;5046824;28;20596;-65
2023/06/15 12:38:27;;;;;;;26.10;6.38;;;37.20;40.10;;;;;;5045956;28;20692;-63
2023/06/15 12:40:55;;;;;;;28.83;6.55;;;37.30;40.30;;;;;;5043271;28;20207;-63